EGXPEGNH

Guest
Details From EGXP - RAF Scampton
To EGNH - Blackpool
Flight Number -
Tags generated
Created
Modified
Stats Distance 93 nm / 172 km
Max Altitude 5,000 ft / 1,524 m
Waypoints 3
Social Downloads 1
Likes 0
Share VATSIM

Download

Looking for another format? Having issues loading an existing format? Contact us
Advertisement - Login to hide

Notes

Basic altitude profile: - Ascent Rate: 2500ft/min - Ascent Speed: 250kts - Cruise Altitude: 35000ft - Cruise Speed: 420kts - Descent Rate: 1500ft/min - Descent Speed: 250kts Options: - Use NATs: yes - Use PACOTS: yes - Use low airways: yes - Use high airways: yes

Route

EGXP DOPEK EGNH

ID Type Via Altitude Latitude Longitude Leg Dist Tot Dist Heading (true) Name
O EGXP APT - 0 ft / 0 m 53.30794˚ -0.55083˚ - 0 nm - RAF Scampton
DOPEK FIX - 5,000 ft / 1,524 m 53.38444˚ -0.92556˚ 14 nm 14 nm 289° / 289° -
O EGNH APT - 0 ft / 0 m 53.77238˚ -3.03261˚ 78 nm 92 nm 288° / 286° Blackpool

Altitude Profile

Advertisement - Login to hide

EGXP

Details ICAO EGXP
Name RAF Scampton
Region United Kingdom
Timezone Europe/London (UTC+0.0)
Stats Elevation 202 ft / 62 m (AMSL)
Location 53.307944° -0.550831°
Runways 1
Magnetic Variation 0.808° W

METAR

EGXP 141850Z AUTO 24015KT 7000 // SCT016/// SCT050/// BKN120/// 03/02 Q0984

Decode

TAF

Not found

Departure Runways

ID Width Length Bearing (true) Bearing (mag) Surface Threshold Offset Overrun Length
04 200 ft / 61 m 8,974 ft / 2,735 m 41.07° 41.88° Asphalt 0 ft / 0 m 0 ft / 0 m
22 200 ft / 61 m 8,974 ft / 2,735 m 221.09° 221.90° Asphalt 0 ft / 0 m 0 ft / 0 m

EGNH

Details ICAO EGNH (BLK)
Name Blackpool
Region United Kingdom
Timezone Europe/London (UTC+0.0)
Stats Elevation 34 ft / 10 m (AMSL)
Location 53.772383° -3.032609°
Runways 3
Magnetic Variation 1.811° W

METAR

EGNH 141920Z 30014G31KT 6000 +SHRA FEW004 SCT010CB BKN028 06/03 Q0985

Decode

TAF

Not found

Destination Runways

ID Width Length Bearing (true) Bearing (mag) Surface Threshold Offset Overrun Length
07 98 ft / 30 m 4,204 ft / 1,281 m 67.79° 69.60° Asphalt 262 ft / 80 m 0 ft / 0 m
10 151 ft / 46 m 6,112 ft / 1,863 m 94.65° 96.46° Asphalt 0 ft / 0 m 0 ft / 0 m
13 75 ft / 23 m 3,034 ft / 925 m 127.37° 129.18° Asphalt 0 ft / 0 m 0 ft / 0 m
25 98 ft / 30 m 4,204 ft / 1,281 m 247.81° 249.62° Asphalt 1,936 ft / 590 m 0 ft / 0 m
28 151 ft / 46 m 6,112 ft / 1,863 m 274.67° 276.48° Asphalt 0 ft / 0 m 0 ft / 0 m
31 75 ft / 23 m 3,034 ft / 925 m 307.38° 309.19° Asphalt 0 ft / 0 m 0 ft / 0 m

Approach Navaids

Runway Type Ident Frequency Range Bearing (true) Bearing (mag) Slope Elevation
28 Localiser IBPL 108.15 MHz 18 nm / 33 km 274.64° 276.46° - 55 ft / 17 m (AMSL)
28 Glidescope IBPL 108.15 MHz 10 nm / 19 km 274.66° 276.47° 3.00° 55 ft / 17 m (AMSL)